Time;durP1;ratioP1;P1;durP2;ratioP2;P2;SDS_P1;SDS_P2;PMS_P1;PMS_P2;Temp;Humidity;BMP_temperature;BMP_pressure;BME280_temperature;BME280_humidity;BME280_pressure;Samples;Min_cycle;Max_cycle;Signal;HPM_P1;HPM_P2
2023/12/22 00:01:54;;;;;;;8.73;1.80;;;;;;;;;;5109652;28;20027;-63
2023/12/22 00:04:19;;;;;;;7.00;1.65;;;;;;;;;;5110603;28;20151;-63
2023/12/22 00:06:48;;;;;;;8.45;1.38;;;;;;;;;;5110328;28;20050;-62
2023/12/22 00:09:13;;;;;;;14.32;1.40;;;;;;;;;;5108791;28;20058;-62
2023/12/22 00:11:38;;;;;;;6.57;1.63;;;;;;;;;;5098688;28;20366;-61
2023/12/22 00:14:04;;;;;;;9.43;1.60;;;;;;;;;;5091648;28;20077;-63
2023/12/22 00:16:29;;;;;;;10.70;1.90;;;;;;;;;;5102605;28;20384;-62
2023/12/22 00:18:56;;;;;;;5.78;1.20;;;;;;;;;;5108520;28;20047;-62
2023/12/22 00:21:21;;;;;;;8.90;1.88;;;;;;;;;;5101750;28;20056;-62
2023/12/22 00:23:47;;;;;;;5.60;1.20;;;;;;;;;;5106069;28;20105;-62
2023/12/22 00:26:15;;;;;;;6.55;1.20;;;;;;;;;;5106733;28;20071;-62
2023/12/22 00:28:41;;;;;;;5.53;1.40;;;;;;;;;;5109365;28;20030;-61
2023/12/22 00:31:07;;;;;;;7.95;1.60;;;;;;;;;;5110719;28;20038;-62
2023/12/22 00:33:32;;;;;;;9.95;1.50;;;;;;;;;;5110940;28;20031;-63
2023/12/22 00:35:58;;;;;;;8.00;1.63;;;;;;;;;;5108918;28;20559;-62
2023/12/22 00:38:23;;;;;;;8.40;1.60;;;;;;;;;;5110855;28;20030;-63
2023/12/22 00:40:49;;;;;;;4.07;1.20;;;;;;;;;;5105558;28;20032;-62
2023/12/22 00:43:14;;;;;;;9.55;2.47;;;;;;;;;;5110956;28;20533;-62
2023/12/22 00:45:39;;;;;;;8.30;1.48;;;;;;;;;;5110735;28;20030;-61
2023/12/22 00:48:05;;;;;;;7.55;1.88;;;;;;;;;;5104036;28;20032;-62
2023/12/22 00:50:30;;;;;;;9.90;1.75;;;;;;;;;;5109465;28;20433;-62
2023/12/22 00:52:55;;;;;;;4.18;1.75;;;;;;;;;;5109571;28;20047;-63
2023/12/22 00:55:21;;;;;;;5.85;1.52;;;;;;;;;;5110538;28;20072;-63
2023/12/22 00:57:46;;;;;;;6.05;1.70;;;;;;;;;;5110598;28;20043;-62
2023/12/22 01:00:12;;;;;;;5.85;1.27;;;;;;;;;;5111675;28;20468;-63
2023/12/22 01:02:38;;;;;;;7.68;1.70;;;;;;;;;;5111050;28;20189;-63
2023/12/22 01:05:04;;;;;;;4.72;1.40;;;;;;;;;;5110876;28;20104;-63
2023/12/22 01:07:29;;;;;;;4.43;1.42;;;;;;;;;;5111598;28;20379;-64
2023/12/22 01:09:55;;;;;;;5.47;1.45;;;;;;;;;;5110983;28;20101;-63
2023/12/22 01:12:20;;;;;;;5.82;1.30;;;;;;;;;;5096696;28;20024;-63
2023/12/22 01:14:45;;;;;;;4.85;1.40;;;;;;;;;;5110868;28;20542;-62
2023/12/22 01:17:11;;;;;;;9.18;1.50;;;;;;;;;;5115457;28;20043;-63
2023/12/22 01:19:36;;;;;;;6.15;1.58;;;;;;;;;;5115529;28;20461;-63
2023/12/22 01:22:02;;;;;;;7.75;1.67;;;;;;;;;;5114680;28;20035;-63
2023/12/22 01:24:27;;;;;;;5.88;1.50;;;;;;;;;;5115277;28;20030;-63
2023/12/22 01:26:53;;;;;;;9.82;2.00;;;;;;;;;;5114580;28;20039;-62
2023/12/22 01:29:18;;;;;;;6.88;1.40;;;;;;;;;;5114613;28;20084;-63
2023/12/22 01:31:44;;;;;;;12.10;1.77;;;;;;;;;;5113549;28;20452;-61
2023/12/22 01:34:09;;;;;;;13.27;1.73;;;;;;;;;;5114078;28;20099;-63
2023/12/22 01:36:34;;;;;;;6.97;1.88;;;;;;;;;;5113776;28;20106;-63
2023/12/22 01:39:00;;;;;;;11.13;1.80;;;;;;;;;;5113422;28;20035;-63
2023/12/22 01:41:25;;;;;;;8.55;1.52;;;;;;;;;;5114006;28;20038;-63
2023/12/22 01:43:51;;;;;;;10.55;2.50;;;;;;;;;;5103702;28;20117;-62
2023/12/22 01:46:17;;;;;;;5.82;1.50;;;;;;;;;;5114197;28;20042;-63
2023/12/22 01:48:42;;;;;;;3.88;1.33;;;;;;;;;;5112836;28;20480;-62
2023/12/22 01:51:08;;;;;;;5.35;1.38;;;;;;;;;;5101566;28;20036;-63
2023/12/22 01:53:34;;;;;;;9.27;1.60;;;;;;;;;;5112698;28;20157;-64
2023/12/22 01:56:01;;;;;;;9.48;1.70;;;;;;;;;;5112934;28;20028;-64
2023/12/22 01:58:28;;;;;;;6.20;1.50;;;;;;;;;;5111851;28;20124;-64
2023/12/22 02:00:53;;;;;;;3.53;1.15;;;;;;;;;;5113829;28;20038;-64
2023/12/22 02:03:19;;;;;;;5.95;1.40;;;;;;;;;;5112724;28;20027;-64
2023/12/22 02:05:45;;;;;;;6.03;1.73;;;;;;;;;;5112724;28;20113;-62
2023/12/22 02:08:11;;;;;;;6.00;0.90;;;;;;;;;;5111619;28;20124;-63
2023/12/22 02:10:37;;;;;;;2.90;1.10;;;;;;;;;;5113739;28;20496;-63
2023/12/22 02:13:04;;;;;;;3.22;0.80;;;;;;;;;;5094425;28;20134;-63
2023/12/22 02:15:30;;;;;;;6.05;1.45;;;;;;;;;;5109614;28;20032;-63
2023/12/22 02:18:02;;;;;;;2.47;0.82;;;;;;;;;;5106310;28;20027;-63
2023/12/22 02:20:29;;;;;;;2.15;0.73;;;;;;;;;;5112977;28;20043;-63
2023/12/22 02:22:54;;;;;;;4.57;0.95;;;;;;;;;;5112401;28;20089;-63
2023/12/22 02:25:20;;;;;;;3.75;1.10;;;;;;;;;;5112428;28;20479;-64
2023/12/22 02:27:50;;;;;;;3.80;1.02;;;;;;;;;;5104300;28;20047;-62
2023/12/22 02:30:39;;;;;;;3.03;0.82;;;;;;;;;;5105905;28;20031;-63
2023/12/22 02:33:07;;;;;;;2.33;0.88;;;;;;;;;;5112796;28;20042;-62
2023/12/22 02:35:36;;;;;;;3.85;1.13;;;;;;;;;;5112729;28;20031;-63
2023/12/22 02:38:03;;;;;;;4.80;1.52;;;;;;;;;;5110223;28;20058;-64
2023/12/22 02:40:29;;;;;;;6.55;0.98;;;;;;;;;;5112991;28;20464;-63
2023/12/22 02:42:55;;;;;;;2.72;1.35;;;;;;;;;;5111260;28;20040;-63
2023/12/22 02:45:21;;;;;;;7.28;1.30;;;;;;;;;;5108199;28;20046;-63
2023/12/22 02:47:47;;;;;;;6.35;1.27;;;;;;;;;;5100794;28;20084;-61
2023/12/22 02:50:14;;;;;;;7.00;1.48;;;;;;;;;;5112255;28;20035;-63
2023/12/22 02:52:40;;;;;;;3.63;1.33;;;;;;;;;;5113718;28;20430;-63
2023/12/22 02:55:05;;;;;;;7.60;1.25;;;;;;;;;;5109975;28;20444;-63
2023/12/22 02:57:31;;;;;;;2.42;1.05;;;;;;;;;;5112699;28;20056;-63
2023/12/22 02:59:57;;;;;;;4.25;1.10;;;;;;;;;;5111457;28;20476;-62
2023/12/22 03:02:22;;;;;;;3.53;0.98;;;;;;;;;;5111522;28;20039;-62
2023/12/22 03:04:48;;;;;;;3.90;0.90;;;;;;;;;;5111416;28;20035;-61
2023/12/22 03:07:14;;;;;;;8.77;1.38;;;;;;;;;;5103690;28;20036;-62
2023/12/22 03:09:40;;;;;;;3.60;1.13;;;;;;;;;;5105068;28;20040;-63
2023/12/22 03:12:09;;;;;;;5.18;1.48;;;;;;;;;;5109556;28;20035;-63
2023/12/22 03:14:35;;;;;;;5.82;1.33;;;;;;;;;;5111625;28;20038;-63
2023/12/22 03:17:05;;;;;;;3.60;1.17;;;;;;;;;;5088477;28;20031;-63
2023/12/22 03:19:31;;;;;;;4.30;1.10;;;;;;;;;;5111384;28;20441;-63
2023/12/22 03:21:59;;;;;;;2.90;0.90;;;;;;;;;;5109768;28;20071;-63
2023/12/22 03:24:25;;;;;;;5.20;1.15;;;;;;;;;;5113396;28;20038;-64
2023/12/22 03:26:51;;;;;;;6.65;1.33;;;;;;;;;;5109955;28;20136;-62
2023/12/22 03:29:17;;;;;;;5.95;1.00;;;;;;;;;;5111979;28;20036;-64
2023/12/22 03:31:43;;;;;;;3.22;0.88;;;;;;;;;;5100087;28;20391;-63
2023/12/22 03:34:08;;;;;;;2.40;1.10;;;;;;;;;;5111383;28;20122;-63
2023/12/22 03:36:34;;;;;;;3.67;1.08;;;;;;;;;;5110446;28;20034;-63
2023/12/22 03:38:59;;;;;;;3.53;1.00;;;;;;;;;;5110130;28;20119;-63
2023/12/22 03:41:24;;;;;;;4.15;1.08;;;;;;;;;;5108814;28;20076;-64
2023/12/22 03:43:50;;;;;;;5.57;1.08;;;;;;;;;;5111220;28;20038;-62
2023/12/22 03:46:15;;;;;;;2.83;0.90;;;;;;;;;;5111308;28;20114;-67
2023/12/22 03:48:41;;;;;;;2.08;0.98;;;;;;;;;;5112783;28;20131;-67
2023/12/22 03:51:06;;;;;;;7.20;1.15;;;;;;;;;;5108315;28;20031;-64
2023/12/22 03:53:32;;;;;;;4.70;1.25;;;;;;;;;;5109860;28;20038;-62
2023/12/22 03:55:57;;;;;;;5.05;1.70;;;;;;;;;;5110555;28;20059;-61
2023/12/22 03:58:22;;;;;;;10.40;1.52;;;;;;;;;;5111850;28;20035;-63
2023/12/22 04:00:48;;;;;;;7.25;1.77;;;;;;;;;;5112646;28;20091;-63
2023/12/22 04:03:13;;;;;;;6.28;1.50;;;;;;;;;;5108117;28;20043;-62
2023/12/22 04:05:39;;;;;;;11.20;3.05;;;;;;;;;;5111132;28;20087;-62
2023/12/22 04:08:05;;;;;;;6.35;1.48;;;;;;;;;;5109448;28;20100;-62
2023/12/22 04:10:31;;;;;;;4.85;1.20;;;;;;;;;;5112178;28;20027;-63
2023/12/22 04:12:56;;;;;;;1.73;0.90;;;;;;;;;;5107235;28;20039;-62
2023/12/22 04:15:21;;;;;;;1.90;0.65;;;;;;;;;;5111535;28;20128;-63
2023/12/22 04:17:47;;;;;;;2.72;0.88;;;;;;;;;;5110667;28;20035;-62
2023/12/22 04:20:13;;;;;;;3.97;1.08;;;;;;;;;;5087665;28;20082;-63
2023/12/22 04:22:38;;;;;;;3.55;1.00;;;;;;;;;;5108474;28;20506;-62
2023/12/22 04:25:05;;;;;;;4.25;1.05;;;;;;;;;;5108519;28;20107;-62
2023/12/22 04:27:31;;;;;;;7.80;1.40;;;;;;;;;;5095968;28;20035;-63
2023/12/22 04:29:56;;;;;;;6.55;1.73;;;;;;;;;;5109671;28;20486;-62
2023/12/22 04:32:21;;;;;;;4.75;1.00;;;;;;;;;;5101532;28;20110;-64
2023/12/22 04:34:47;;;;;;;4.25;1.08;;;;;;;;;;5107517;28;20027;-63
2023/12/22 04:37:12;;;;;;;3.78;1.00;;;;;;;;;;5096199;28;20024;-64
2023/12/22 04:39:38;;;;;;;4.43;1.10;;;;;;;;;;5104919;28;20114;-63
2023/12/22 04:42:03;;;;;;;5.85;1.23;;;;;;;;;;5111084;28;20035;-63
2023/12/22 04:44:28;;;;;;;4.70;1.00;;;;;;;;;;5109982;28;20027;-62
2023/12/22 04:46:54;;;;;;;6.40;1.10;;;;;;;;;;5109920;28;20098;-61
2023/12/22 04:49:19;;;;;;;6.13;1.27;;;;;;;;;;5110114;28;20034;-64
2023/12/22 04:51:45;;;;;;;4.43;1.10;;;;;;;;;;5111334;28;20377;-64
2023/12/22 04:54:10;;;;;;;5.97;1.98;;;;;;;;;;5112264;28;20035;-64
2023/12/22 04:56:35;;;;;;;7.32;1.80;;;;;;;;;;5114090;28;20031;-64
2023/12/22 04:59:01;;;;;;;5.22;1.65;;;;;;;;;;5111372;28;20020;-63
2023/12/22 05:01:26;;;;;;;6.57;1.27;;;;;;;;;;5114783;28;20051;-63
2023/12/22 05:03:53;;;;;;;7.40;1.10;;;;;;;;;;5114949;28;20035;-63
2023/12/22 05:06:19;;;;;;;6.30;1.58;;;;;;;;;;5095985;28;20110;-63
2023/12/22 05:08:44;;;;;;;16.20;1.67;;;;;;;;;;5112730;28;20115;-62
2023/12/22 05:11:09;;;;;;;6.75;1.42;;;;;;;;;;5104504;28;20036;-63
2023/12/22 05:13:35;;;;;;;4.97;1.20;;;;;;;;;;5107485;28;20039;-63
2023/12/22 05:16:00;;;;;;;5.45;1.42;;;;;;;;;;5114044;28;20031;-62
2023/12/22 05:18:25;;;;;;;6.38;1.63;;;;;;;;;;5114476;28;20038;-63
2023/12/22 05:20:53;;;;;;;8.98;1.48;;;;;;;;;;5114508;28;20335;-63
2023/12/22 05:23:18;;;;;;;3.38;1.30;;;;;;;;;;5112328;28;20032;-65
2023/12/22 05:25:44;;;;;;;7.65;1.50;;;;;;;;;;5112763;28;20043;-65
2023/12/22 05:28:09;;;;;;;5.53;1.40;;;;;;;;;;5113827;28;20055;-64
2023/12/22 05:30:35;;;;;;;5.25;1.30;;;;;;;;;;5114275;28;20072;-64
2023/12/22 05:33:00;;;;;;;8.63;1.60;;;;;;;;;;5113000;28;20032;-64
2023/12/22 05:35:25;;;;;;;1.88;0.82;;;;;;;;;;5112486;28;20028;-64
2023/12/22 05:37:51;;;;;;;5.22;1.42;;;;;;;;;;5114415;28;20080;-63
2023/12/22 05:40:16;;;;;;;10.85;1.85;;;;;;;;;;5113669;28;20219;-64
2023/12/22 05:42:42;;;;;;;8.85;1.45;;;;;;;;;;5113231;28;20081;-63
2023/12/22 05:45:08;;;;;;;6.50;1.20;;;;;;;;;;5113355;28;20036;-62
2023/12/22 05:47:33;;;;;;;6.45;1.48;;;;;;;;;;5114720;28;20031;-62
2023/12/22 05:49:59;;;;;;;6.15;2.05;;;;;;;;;;5114224;28;20521;-62
2023/12/22 05:52:25;;;;;;;4.47;1.40;;;;;;;;;;5112392;28;20129;-62
2023/12/22 05:54:50;;;;;;;7.30;1.58;;;;;;;;;;5105817;28;20077;-62
2023/12/22 05:57:16;;;;;;;7.53;1.30;;;;;;;;;;5104247;28;20031;-62
2023/12/22 05:59:42;;;;;;;8.35;1.60;;;;;;;;;;5112117;28;20054;-62
2023/12/22 06:02:07;;;;;;;14.32;1.77;;;;;;;;;;5111157;28;20380;-62
2023/12/22 06:04:32;;;;;;;5.60;1.50;;;;;;;;;;5113964;28;20036;-63
2023/12/22 06:06:58;;;;;;;7.65;1.45;;;;;;;;;;5112451;28;20364;-61
2023/12/22 06:09:23;;;;;;;2.58;1.27;;;;;;;;;;5113870;28;20063;-62
2023/12/22 06:11:49;;;;;;;7.72;1.90;;;;;;;;;;5111681;28;20038;-62
2023/12/22 06:14:14;;;;;;;7.10;1.33;;;;;;;;;;5113050;28;20103;-61
2023/12/22 06:16:40;;;;;;;10.77;1.98;;;;;;;;;;5113679;28;20116;-62
2023/12/22 06:19:05;;;;;;;7.00;1.38;;;;;;;;;;5107998;28;20465;-61
2023/12/22 06:21:31;;;;;;;6.30;1.30;;;;;;;;;;5094742;28;20040;-61
2023/12/22 06:23:56;;;;;;;7.90;1.55;;;;;;;;;;5098792;28;20032;-61
2023/12/22 06:26:22;;;;;;;10.70;1.85;;;;;;;;;;5112905;28;20066;-61
2023/12/22 06:28:47;;;;;;;6.07;1.48;;;;;;;;;;5113240;28;20076;-62
2023/12/22 06:31:21;;;;;;;9.45;1.67;;;;;;;;;;5111304;28;20039;-61
2023/12/22 06:33:47;;;;;;;12.25;2.20;;;;;;;;;;5091093;28;20119;-62
2023/12/22 06:36:25;;;;;;;7.28;1.55;;;;;;;;;;5093182;28;20077;-61
2023/12/22 06:38:51;;;;;;;4.80;1.42;;;;;;;;;;5107632;28;20028;-62
2023/12/22 06:41:24;;;;;;;7.63;1.75;;;;;;;;;;5109868;28;20035;-62
2023/12/22 06:43:50;;;;;;;8.88;1.70;;;;;;;;;;5113886;28;20443;-62
2023/12/22 06:46:20;;;;;;;5.43;1.30;;;;;;;;;;5112106;28;20032;-61
2023/12/22 06:48:46;;;;;;;6.88;1.75;;;;;;;;;;5113046;28;20051;-61
2023/12/22 06:51:26;;;;;;;12.60;2.28;;;;;;;;;;5092453;28;20078;-61
2023/12/22 06:53:51;;;;;;;12.68;2.47;;;;;;;;;;5111192;28;20035;-61
2023/12/22 06:56:22;;;;;;;4.97;1.50;;;;;;;;;;5113048;28;20037;-61
2023/12/22 06:58:48;;;;;;;11.65;2.28;;;;;;;;;;5096896;28;20023;-61
2023/12/22 07:01:34;;;;;;;11.48;1.70;;;;;;;;;;5092851;28;20039;-63
2023/12/22 07:04:01;;;;;;;15.43;2.53;;;;;;;;;;5111107;28;20028;-64
2023/12/22 07:06:29;;;;;;;12.50;3.15;;;;;;;;;;5111090;28;20057;-63
2023/12/22 07:08:57;;;;;;;8.48;1.75;;;;;;;;;;5108634;28;20044;-63
2023/12/22 07:11:22;;;;;;;9.50;2.53;;;;;;;;;;5093619;28;20024;-62
2023/12/22 07:13:48;;;;;;;5.85;1.83;;;;;;;;;;5112125;28;20077;-62
2023/12/22 07:16:13;;;;;;;13.80;1.83;;;;;;;;;;5111510;28;20037;-62
2023/12/22 07:18:39;;;;;;;10.82;2.03;;;;;;;;;;5112975;28;20475;-62
2023/12/22 07:21:04;;;;;;;8.73;1.88;;;;;;;;;;5111986;28;20048;-60
2023/12/22 07:23:29;;;;;;;18.77;2.40;;;;;;;;;;5109400;28;20032;-62
2023/12/22 07:25:55;;;;;;;13.85;2.38;;;;;;;;;;5112609;28;20088;-62
2023/12/22 07:28:20;;;;;;;10.13;2.25;;;;;;;;;;5108714;28;20042;-62
2023/12/22 07:30:46;;;;;;;10.98;2.40;;;;;;;;;;5097646;28;20357;-63
2023/12/22 07:33:11;;;;;;;16.35;2.03;;;;;;;;;;5103567;28;20040;-62
2023/12/22 07:35:36;;;;;;;13.20;2.80;;;;;;;;;;5109412;28;20027;-63
2023/12/22 07:38:05;;;;;;;18.67;2.42;;;;;;;;;;5113037;28;20035;-61
2023/12/22 07:40:30;;;;;;;14.23;3.03;;;;;;;;;;5111295;28;20042;-63
2023/12/22 07:42:59;;;;;;;13.40;2.75;;;;;;;;;;5113119;28;20032;-64
2023/12/22 07:45:25;;;;;;;16.90;2.60;;;;;;;;;;5112274;28;20141;-63
2023/12/22 07:47:50;;;;;;;12.40;2.53;;;;;;;;;;5113125;28;20403;-64
2023/12/22 07:50:15;;;;;;;15.60;2.50;;;;;;;;;;5104150;28;20060;-62
2023/12/22 07:52:41;;;;;;;14.65;3.17;;;;;;;;;;5092248;28;20115;-61
2023/12/22 07:55:09;;;;;;;10.13;3.22;;;;;;;;;;5094106;28;20039;-60
2023/12/22 07:57:36;;;;;;;14.63;2.83;;;;;;;;;;5074347;28;20376;-62
2023/12/22 08:00:03;;;;;;;12.25;3.13;;;;;;;;;;5101401;28;20028;-61
2023/12/22 08:02:28;;;;;;;10.45;2.75;;;;;;;;;;5100108;28;20035;-62
2023/12/22 08:04:53;;;;;;;13.95;3.60;;;;;;;;;;5112738;28;20035;-63
2023/12/22 08:07:19;;;;;;;8.70;2.92;;;;;;;;;;5092585;28;20081;-62
2023/12/22 08:09:44;;;;;;;13.38;2.63;;;;;;;;;;5112637;28;20440;-61
2023/12/22 08:12:09;;;;;;;18.92;3.05;;;;;;;;;;5110928;28;20076;-61
2023/12/22 08:14:35;;;;;;;15.35;3.10;;;;;;;;;;5111757;28;20119;-62
2023/12/22 08:17:00;;;;;;;11.65;3.20;;;;;;;;;;5111558;28;20093;-62
2023/12/22 08:19:26;;;;;;;11.18;2.22;;;;;;;;;;5091274;28;20118;-61
2023/12/22 08:21:54;;;;;;;7.30;1.83;;;;;;;;;;5109712;28;20062;-62
2023/12/22 08:24:20;;;;;;;13.18;2.60;;;;;;;;;;5110913;28;20023;-63
2023/12/22 08:26:45;;;;;;;17.80;2.60;;;;;;;;;;5102008;28;20028;-63
2023/12/22 08:29:11;;;;;;;11.75;1.88;;;;;;;;;;5094476;28;20096;-64
2023/12/22 08:31:36;;;;;;;8.57;1.90;;;;;;;;;;5111308;28;20518;-64
2023/12/22 08:34:02;;;;;;;11.07;2.65;;;;;;;;;;5112055;28;20062;-63
2023/12/22 08:36:27;;;;;;;12.02;2.50;;;;;;;;;;5110378;28;20066;-63
2023/12/22 08:38:52;;;;;;;10.40;2.10;;;;;;;;;;5093942;28;20024;-64
2023/12/22 08:41:18;;;;;;;20.27;3.05;;;;;;;;;;5110811;28;20413;-63
2023/12/22 08:43:43;;;;;;;18.50;2.78;;;;;;;;;;5111970;28;20474;-64
2023/12/22 08:46:10;;;;;;;16.63;2.85;;;;;;;;;;5092401;28;20027;-62
2023/12/22 08:48:35;;;;;;;13.73;2.75;;;;;;;;;;5103454;28;20484;-63
2023/12/22 08:51:01;;;;;;;21.23;3.53;;;;;;;;;;5098293;28;20472;-62
2023/12/22 08:53:29;;;;;;;11.13;2.85;;;;;;;;;;5107759;28;20035;-63
2023/12/22 08:55:56;;;;;;;13.48;2.80;;;;;;;;;;5111213;28;20081;-63
2023/12/22 08:58:21;;;;;;;16.75;3.15;;;;;;;;;;5110889;28;20032;-62
2023/12/22 09:00:47;;;;;;;16.40;3.38;;;;;;;;;;5093605;28;20032;-63
2023/12/22 09:03:12;;;;;;;16.95;3.72;;;;;;;;;;5110485;28;20055;-61
2023/12/22 09:05:38;;;;;;;18.67;2.70;;;;;;;;;;5106164;28;20122;-62
2023/12/22 09:08:04;;;;;;;23.60;2.47;;;;;;;;;;5111650;28;20031;-62
2023/12/22 09:10:29;;;;;;;20.45;3.85;;;;;;;;;;5110230;28;20058;-62
2023/12/22 09:12:54;;;;;;;10.77;2.70;;;;;;;;;;5102543;28;20068;-63
2023/12/22 09:15:20;;;;;;;14.27;3.08;;;;;;;;;;5090504;28;20028;-62
2023/12/22 09:17:45;;;;;;;20.30;3.67;;;;;;;;;;5091294;28;20376;-61
2023/12/22 09:20:12;;;;;;;17.05;3.13;;;;;;;;;;5069146;28;20389;-61
2023/12/22 09:22:37;;;;;;;18.73;3.55;;;;;;;;;;5070597;28;20052;-62
2023/12/22 09:25:03;;;;;;;17.48;3.65;;;;;;;;;;5069441;28;20449;-62
2023/12/22 09:27:30;;;;;;;16.55;3.80;;;;;;;;;;5070371;28;20039;-61
2023/12/22 09:29:59;;;;;;;15.38;3.10;;;;;;;;;;5070920;28;20036;-64
2023/12/22 09:32:25;;;;;;;13.98;2.70;;;;;;;;;;5066790;28;20538;-62
2023/12/22 09:34:52;;;;;;;18.05;3.47;;;;;;;;;;5070284;28;20082;-62
2023/12/22 09:37:17;;;;;;;13.30;2.75;;;;;;;;;;5072223;28;20097;-62
2023/12/22 09:39:42;;;;;;;12.88;3.00;;;;;;;;;;5074826;28;20078;-63
2023/12/22 09:42:08;;;;;;;16.27;3.53;;;;;;;;;;5074683;28;20119;-62
2023/12/22 09:44:36;;;;;;;18.83;3.40;;;;;;;;;;5069321;28;20041;-62
2023/12/22 09:47:04;;;;;;;13.73;2.75;;;;;;;;;;5054800;28;20029;-63
2023/12/22 09:49:29;;;;;;;13.52;2.80;;;;;;;;;;5057138;28;20922;-62
2023/12/22 09:51:57;;;;;;;14.73;2.85;;;;;;;;;;5073085;28;20040;-62
2023/12/22 09:54:23;;;;;;;11.23;2.47;;;;;;;;;;5073929;28;20028;-61
2023/12/22 09:56:51;;;;;;;10.10;2.30;;;;;;;;;;5074242;28;20130;-64
2023/12/22 09:59:17;;;;;;;10.90;2.30;;;;;;;;;;5073515;28;20037;-61
2023/12/22 10:01:47;;;;;;;11.70;2.40;;;;;;;;;;5072947;28;20033;-61
2023/12/22 10:04:13;;;;;;;12.43;2.78;;;;;;;;;;5066737;28;20028;-60
2023/12/22 10:06:39;;;;;;;10.55;2.20;;;;;;;;;;5073694;28;20062;-63
2023/12/22 10:09:08;;;;;;;13.93;1.98;;;;;;;;;;5074053;28;20457;-62
2023/12/22 10:11:36;;;;;;;11.70;2.30;;;;;;;;;;5072744;28;20122;-62
2023/12/22 10:14:02;;;;;;;10.05;2.03;;;;;;;;;;5073555;28;20032;-63
2023/12/22 10:16:28;;;;;;;8.65;2.33;;;;;;;;;;5072777;28;20056;-62
2023/12/22 10:18:53;;;;;;;14.73;3.70;;;;;;;;;;5074145;28;20426;-63
2023/12/22 10:21:19;;;;;;;9.77;2.70;;;;;;;;;;5100785;28;20047;-62
2023/12/22 10:23:44;;;;;;;13.52;2.78;;;;;;;;;;5108556;28;20036;-61
2023/12/22 10:26:12;;;;;;;12.43;2.90;;;;;;;;;;5093750;28;20032;-62
2023/12/22 10:28:38;;;;;;;11.20;2.90;;;;;;;;;;5075625;28;20472;-62
2023/12/22 10:31:06;;;;;;;13.82;3.50;;;;;;;;;;5101008;28;20203;-62
2023/12/22 10:33:32;;;;;;;12.07;3.55;;;;;;;;;;5113553;28;20529;-62
2023/12/22 10:36:01;;;;;;;17.85;3.45;;;;;;;;;;5114214;28;20019;-63
2023/12/22 10:38:36;;;;;;;12.82;2.38;;;;;;;;;;5113283;28;20024;-63
2023/12/22 10:41:02;;;;;;;12.90;2.70;;;;;;;;;;5109489;28;20074;-63
2023/12/22 10:43:28;;;;;;;10.80;3.35;;;;;;;;;;5092770;28;20115;-64
2023/12/22 10:45:54;;;;;;;13.85;4.07;;;;;;;;;;5093951;28;20490;-65
2023/12/22 10:48:19;;;;;;;14.02;3.30;;;;;;;;;;5110852;28;20032;-64
2023/12/22 10:50:47;;;;;;;10.15;2.78;;;;;;;;;;5102399;28;20059;-64
2023/12/22 10:53:12;;;;;;;8.95;2.55;;;;;;;;;;5093433;28;20056;-64
2023/12/22 10:55:38;;;;;;;7.97;2.53;;;;;;;;;;5109740;28;20100;-63
2023/12/22 10:58:04;;;;;;;15.57;3.92;;;;;;;;;;5097705;28;20498;-67
2023/12/22 11:00:32;;;;;;;15.05;3.78;;;;;;;;;;5092619;28;20028;-66
2023/12/22 11:03:03;;;;;;;10.30;3.08;;;;;;;;;;5093959;28;20039;-64
2023/12/22 11:05:29;;;;;;;16.60;3.67;;;;;;;;;;5113106;28;20054;-66
2023/12/22 11:07:55;;;;;;;14.35;3.53;;;;;;;;;;5113349;28;20384;-65
2023/12/22 11:10:21;;;;;;;10.30;2.90;;;;;;;;;;5113127;28;20039;-65
2023/12/22 11:12:47;;;;;;;9.77;3.00;;;;;;;;;;5113629;28;20515;-66
2023/12/22 11:15:15;;;;;;;9.13;2.40;;;;;;;;;;5113650;28;20024;-66
2023/12/22 11:17:42;;;;;;;9.95;2.63;;;;;;;;;;5100749;28;20039;-65
2023/12/22 11:20:10;;;;;;;8.23;2.55;;;;;;;;;;5074879;28;20464;-63
2023/12/22 11:22:36;;;;;;;8.32;2.20;;;;;;;;;;5100315;28;20137;-64
2023/12/22 11:25:03;;;;;;;13.80;2.80;;;;;;;;;;5092973;28;20051;-64
2023/12/22 11:27:28;;;;;;;5.88;1.90;;;;;;;;;;5092240;28;20024;-63
2023/12/22 11:29:55;;;;;;;11.13;2.53;;;;;;;;;;5112680;28;20059;-63
2023/12/22 11:32:21;;;;;;;8.57;1.92;;;;;;;;;;5111613;28;20110;-62
2023/12/22 11:34:47;;;;;;;9.25;1.95;;;;;;;;;;5108323;28;20154;-63
2023/12/22 11:37:14;;;;;;;11.18;2.60;;;;;;;;;;5113306;28;20548;-64
2023/12/22 11:39:43;;;;;;;2.28;1.25;;;;;;;;;;5112352;28;20643;-65
2023/12/22 11:42:14;;;;;;;5.97;1.35;;;;;;;;;;5094557;28;20380;-65
2023/12/22 11:44:40;;;;;;;5.13;1.70;;;;;;;;;;5111794;28;20086;-63
2023/12/22 11:47:06;;;;;;;3.75;1.15;;;;;;;;;;5106086;28;20493;-64
2023/12/22 11:49:34;;;;;;;3.92;1.42;;;;;;;;;;5103452;28;20023;-64
2023/12/22 11:52:08;;;;;;;4.05;1.45;;;;;;;;;;5111770;28;20487;-63
2023/12/22 11:54:51;;;;;;;3.28;1.52;;;;;;;;;;5112038;28;20032;-63
2023/12/22 11:57:37;;;;;;;4.00;1.70;;;;;;;;;;5112972;28;20036;-64
2023/12/22 12:00:07;;;;;;;4.75;1.52;;;;;;;;;;5111538;28;20039;-65
2023/12/22 12:02:37;;;;;;;5.90;1.80;;;;;;;;;;5094933;28;20476;-64
2023/12/22 12:05:04;;;;;;;6.05;1.55;;;;;;;;;;5111473;28;20028;-66
2023/12/22 12:07:51;;;;;;;5.55;1.88;;;;;;;;;;5077306;28;20036;-64
2023/12/22 12:10:31;;;;;;;5.28;1.70;;;;;;;;;;5093115;28;20028;-64
2023/12/22 12:13:10;;;;;;;7.47;1.85;;;;;;;;;;5111379;28;20523;-63
2023/12/22 12:15:36;;;;;;;7.10;2.88;;;;;;;;;;5099558;28;20440;-63
2023/12/22 12:18:02;;;;;;;8.23;2.00;;;;;;;;;;5108010;28;20020;-65
2023/12/22 12:20:28;;;;;;;10.27;2.60;;;;;;;;;;5110837;28;20075;-64
2023/12/22 12:22:54;;;;;;;6.72;2.65;;;;;;;;;;5112157;28;20071;-64
2023/12/22 12:25:25;;;;;;;11.45;2.63;;;;;;;;;;5112094;28;20069;-62
2023/12/22 12:28:11;;;;;;;6.78;2.22;;;;;;;;;;5111672;28;20032;-64
2023/12/22 12:30:38;;;;;;;6.40;2.17;;;;;;;;;;5093393;28;20040;-64
2023/12/22 12:33:08;;;;;;;5.50;1.90;;;;;;;;;;5073753;28;20036;-65
2023/12/22 12:35:34;;;;;;;7.57;2.40;;;;;;;;;;5090456;28;20031;-63
2023/12/22 12:38:00;;;;;;;9.55;2.55;;;;;;;;;;5101074;28;20024;-65
2023/12/22 12:40:29;;;;;;;8.63;2.38;;;;;;;;;;5091153;28;20035;-67
2023/12/22 12:42:55;;;;;;;5.32;1.52;;;;;;;;;;5074217;28;20107;-66
2023/12/22 12:45:25;;;;;;;4.63;1.40;;;;;;;;;;5091478;28;20040;-62
2023/12/22 12:48:01;;;;;;;5.28;1.30;;;;;;;;;;5111285;28;20054;-63
2023/12/22 12:50:28;;;;;;;3.50;1.40;;;;;;;;;;5110440;28;20034;-64
2023/12/22 12:52:54;;;;;;;4.45;1.63;;;;;;;;;;5112024;28;20077;-64
2023/12/22 12:55:20;;;;;;;4.38;1.73;;;;;;;;;;5111889;28;20024;-64
2023/12/22 12:57:53;;;;;;;6.10;2.03;;;;;;;;;;5105359;28;20142;-66
2023/12/22 13:00:26;;;;;;;6.60;2.17;;;;;;;;;;5111908;28;20507;-66
2023/12/22 13:02:56;;;;;;;7.32;2.40;;;;;;;;;;5111916;28;20032;-64
2023/12/22 13:05:25;;;;;;;6.85;2.30;;;;;;;;;;5092141;28;20066;-62
2023/12/22 13:07:51;;;;;;;6.28;2.33;;;;;;;;;;5090259;28;20097;-66
2023/12/22 13:10:24;;;;;;;11.32;2.67;;;;;;;;;;5097252;28;20448;-66
2023/12/22 13:12:50;;;;;;;8.98;2.40;;;;;;;;;;5097500;28;20088;-66
2023/12/22 13:15:16;;;;;;;5.25;2.00;;;;;;;;;;5097503;28;20050;-64
2023/12/22 13:17:43;;;;;;;5.05;2.10;;;;;;;;;;5102353;28;20644;-66
2023/12/22 13:20:10;;;;;;;3.83;1.30;;;;;;;;;;5094951;28;20143;-66
2023/12/22 13:22:35;;;;;;;6.75;1.45;;;;;;;;;;5094507;28;20111;-65
2023/12/22 13:25:00;;;;;;;4.18;1.98;;;;;;;;;;5113387;28;20134;-65
2023/12/22 13:27:26;;;;;;;5.90;1.58;;;;;;;;;;5113872;28;20030;-61
2023/12/22 13:29:53;;;;;;;5.60;2.00;;;;;;;;;;5115522;28;20515;-65
2023/12/22 13:32:21;;;;;;;2.25;1.23;;;;;;;;;;5115351;28;20373;-64
2023/12/22 13:34:50;;;;;;;2.35;1.30;;;;;;;;;;5114478;28;20898;-62
2023/12/22 13:37:16;;;;;;;3.85;1.40;;;;;;;;;;5114899;28;20499;-64
2023/12/22 13:39:42;;;;;;;2.47;1.40;;;;;;;;;;5114478;28;20111;-65
2023/12/22 13:42:15;;;;;;;6.53;2.13;;;;;;;;;;5115301;28;20066;-65
2023/12/22 13:44:46;;;;;;;7.72;1.85;;;;;;;;;;5095281;28;20039;-65
2023/12/22 13:47:13;;;;;;;5.82;1.85;;;;;;;;;;5114678;28;20035;-63
2023/12/22 13:49:39;;;;;;;7.47;1.83;;;;;;;;;;5113026;28;20084;-62
2023/12/22 13:52:07;;;;;;;7.68;2.10;;;;;;;;;;5102069;28;20040;-62
2023/12/22 13:54:33;;;;;;;7.82;2.17;;;;;;;;;;5093978;28;20119;-62
2023/12/22 13:56:59;;;;;;;10.50;2.40;;;;;;;;;;5076429;28;20093;-62
2023/12/22 13:59:33;;;;;;;7.20;2.13;;;;;;;;;;5088089;28;20043;-62
2023/12/22 14:01:58;;;;;;;11.75;2.42;;;;;;;;;;5109870;28;20039;-66
2023/12/22 14:04:23;;;;;;;8.05;2.95;;;;;;;;;;5112424;28;20035;-64
2023/12/22 14:06:49;;;;;;;9.38;2.95;;;;;;;;;;5113231;28;20030;-67
2023/12/22 14:09:17;;;;;;;8.05;2.20;;;;;;;;;;5087380;28;20028;-67
2023/12/22 14:11:43;;;;;;;8.88;2.75;;;;;;;;;;5098387;28;20035;-64
2023/12/22 14:14:08;;;;;;;7.05;2.05;;;;;;;;;;5109990;28;20043;-64
2023/12/22 14:16:33;;;;;;;6.57;2.17;;;;;;;;;;5098629;28;20024;-64
2023/12/22 14:18:59;;;;;;;6.05;2.20;;;;;;;;;;5106256;28;20044;-65
2023/12/22 14:21:24;;;;;;;7.60;2.10;;;;;;;;;;5106178;28;20082;-65
2023/12/22 14:23:50;;;;;;;6.75;1.55;;;;;;;;;;5101834;28;20035;-62
2023/12/22 14:26:16;;;;;;;2.95;1.63;;;;;;;;;;5113899;28;20032;-62
2023/12/22 14:28:42;;;;;;;3.92;1.60;;;;;;;;;;5110058;28;20027;-64
2023/12/22 14:31:07;;;;;;;6.05;1.35;;;;;;;;;;5113878;28;20049;-64
2023/12/22 14:33:32;;;;;;;8.52;1.80;;;;;;;;;;5113726;28;20057;-63
2023/12/22 14:35:58;;;;;;;6.53;1.60;;;;;;;;;;5112878;28;20035;-63